Airfield :







YOU CAN JOIN US ON...

 
LOGIN :

Register | Disclaimer

   EN    FR    IT 

 









Legend :    VFR   Marginal VFR   IFR   Intensive IFR   Very Intensive IFR
Visi :
Ceiling :
>= 8 km
>= 3000ft
5 to 8 km
1000 to 3000 ft
1500m to 5 km
500 to 1000 ft
800 to 1500m
200 to 500 ft
< 800m
< 200 ft
Symbols :   Thunderstorms  Fog  Heavy snow  Heavy precipitations  Wind > 20 kt






- Airport Elevation : 534 ft
- IATA code : PQI


KPQI - Northern Maine Regional Arpt At Presque Isle

CURRENT METAR :
  • 302156Z AUTO 24007KT 10SM FEW040 16/10 A2950 RMK AO2 SLP013 T01610100 PNO $

EXPIRED METARs :
  • 302056Z AUTO 24013KT 10SM OVC110 18/12 A2944 RMK AO2 SLP991 6//// T01780117 51033 PNO $
  • 301956Z AUTO 23010G16KT 10SM FEW025 BKN032 18/14 A2943 RMK AO2 SLP986 T01780144 PNO $

TAF KPQI
Valid from the 30 at 20:00 until the 01 at 18:00 UTC


301941Z 3020/0118 23013G22KT P6SM -RA OVC040
FM302100 25012G20KT P6SM VCSH BKN050
FM302300 24010G17KT P6SM SCT050
FM010400 21007KT P6SM FEW050
FM011500 21011G20KT P6SM SCT045
KZBW FIR / North America



MET'MAP, your aeronautical weather chart ! - Copyright ORBIFLY December 2007 - Disclaimer

ORBIFLY MET'MAP TEAM :

Programming & Development : Alexandra Zaïnal
Concept & original design : Baudouin d'Aumeries
Assistance for programming : Marc-Olivier Méhu
Technical & hardware support : Manuel Goepfert

Contact : metmap@orbifly.com




SOURCES & CREDITS :

   NOAA